createdAt,value
2023-03-20T00:00:56.721Z,12.00
2023-03-20T00:03:26.575Z,12.00
2023-03-20T00:05:54.861Z,12.00
2023-03-20T00:08:23.042Z,11.90
2023-03-20T00:10:51.223Z,11.90
2023-03-20T00:13:28.153Z,11.90
2023-03-20T00:15:56.393Z,11.90
2023-03-20T00:18:26.686Z,11.90
2023-03-20T00:20:54.861Z,12.00
2023-03-20T00:23:23.079Z,11.90
2023-03-20T00:25:51.345Z,11.90
2023-03-20T00:28:37.491Z,11.90
2023-03-20T00:31:06.848Z,12.00
2023-03-20T00:33:38.301Z,11.90
2023-03-20T00:36:07.449Z,11.90
2023-03-20T00:38:35.661Z,11.90
2023-03-20T00:41:04.245Z,12.00
2023-03-20T00:43:32.927Z,11.90
2023-03-20T00:46:01.115Z,12.00
2023-03-20T00:48:29.317Z,12.00
2023-03-20T00:50:59.738Z,11.90
2023-03-20T00:53:27.915Z,12.00
2023-03-20T00:55:56.029Z,12.00
2023-03-20T00:58:24.368Z,12.00
2023-03-20T01:00:52.619Z,12.00
2023-03-20T01:03:22.843Z,12.00
2023-03-20T01:05:52.487Z,12.00
2023-03-20T01:08:24.500Z,11.90
2023-03-20T01:10:55.294Z,11.90
2023-03-20T01:13:26.121Z,11.90
2023-03-20T01:15:58.080Z,11.90
2023-03-20T01:18:28.227Z,11.90
2023-03-20T01:20:56.421Z,11.90
2023-03-20T01:23:26.776Z,11.90
2023-03-20T01:25:54.949Z,11.90
2023-03-20T01:28:25.229Z,11.90
2023-03-20T01:30:53.371Z,11.90
2023-03-20T01:33:23.207Z,11.80
2023-03-20T01:35:52.458Z,11.80
2023-03-20T01:38:23.103Z,11.80
2023-03-20T01:40:58.283Z,11.80
2023-03-20T01:43:27.502Z,11.80
2023-03-20T01:46:03.907Z,11.80
2023-03-20T01:48:57.372Z,11.80
2023-03-20T01:51:27.648Z,11.80
2023-03-20T01:53:59.820Z,11.80
2023-03-20T01:56:32.888Z,11.80
2023-03-20T01:59:05.830Z,11.80
2023-03-20T02:01:36.786Z,11.80
2023-03-20T02:04:06.524Z,11.80
2023-03-20T02:06:34.669Z,11.80
2023-03-20T02:09:03.236Z,11.80
2023-03-20T02:11:33.316Z,11.80
2023-03-20T02:14:02.845Z,11.80
2023-03-20T02:16:31.118Z,11.80
2023-03-20T02:19:00.796Z,11.80
2023-03-20T02:22:06.965Z,11.80
2023-03-20T02:25:03.550Z,11.80
2023-03-20T02:27:40.483Z,11.80
2023-03-20T02:30:34.589Z,11.80
2023-03-20T02:33:37.445Z,11.80
2023-03-20T02:36:35.390Z,11.80
2023-03-20T02:39:26.254Z,11.80
2023-03-20T02:42:01.838Z,11.80
2023-03-20T02:44:39.823Z,11.70
2023-03-20T02:47:12.634Z,11.70
2023-03-20T02:49:53.175Z,11.70
2023-03-20T02:52:28.579Z,11.60
2023-03-20T02:55:09.859Z,11.50
2023-03-20T02:57:44.882Z,11.40
2023-03-20T03:00:18.634Z,11.30
2023-03-20T03:02:52.700Z,11.20
2023-03-20T03:05:24.886Z,11.20
2023-03-20T03:07:57.541Z,11.20
2023-03-20T03:10:30.185Z,11.20
2023-03-20T03:12:59.932Z,11.20
2023-03-20T03:15:32.444Z,11.20
2023-03-20T03:18:05.135Z,11.20
2023-03-20T03:20:37.237Z,11.20
2023-03-20T03:23:06.724Z,11.20
2023-03-20T03:25:41.015Z,11.20
2023-03-20T03:28:14.450Z,11.30
2023-03-20T03:30:45.250Z,11.30
2023-03-20T03:33:23.115Z,11.20
2023-03-20T03:35:56.697Z,11.30
2023-03-20T03:38:31.566Z,11.30
2023-03-20T03:41:11.409Z,11.30
2023-03-20T03:43:44.835Z,11.30
2023-03-20T03:46:19.159Z,11.30
2023-03-20T03:48:51.654Z,11.30
2023-03-20T03:51:25.121Z,11.20
2023-03-20T03:53:59.023Z,11.30
2023-03-20T03:56:32.222Z,11.30
2023-03-20T03:59:04.626Z,11.20
2023-03-20T04:01:35.640Z,11.20
2023-03-20T04:04:08.400Z,11.20
2023-03-20T04:06:36.989Z,11.20
2023-03-20T04:09:05.300Z,11.20
2023-03-20T04:11:35.738Z,11.10
2023-03-20T04:14:04.060Z,11.10
2023-03-20T04:16:32.270Z,11.10
2023-03-20T04:19:00.618Z,11.20
2023-03-20T04:21:28.837Z,11.10
2023-03-20T04:23:57.307Z,11.10
2023-03-20T04:26:25.766Z,11.00
2023-03-20T04:28:55.439Z,11.00
2023-03-20T04:31:23.788Z,11.00
2023-03-20T04:33:52.315Z,10.90
2023-03-20T04:36:20.607Z,10.90
2023-03-20T04:38:48.818Z,10.90
2023-03-20T04:41:17.077Z,10.90
2023-03-20T04:43:45.247Z,10.90
2023-03-20T04:46:14.879Z,10.80
2023-03-20T04:48:43.341Z,10.80
2023-03-20T04:51:11.491Z,10.80
2023-03-20T04:53:39.646Z,10.80
2023-03-20T04:56:09.150Z,10.80
2023-03-20T04:58:37.553Z,10.80
2023-03-20T05:01:05.993Z,10.80
2023-03-20T05:03:35.595Z,10.80
2023-03-20T05:06:03.912Z,10.80
2023-03-20T05:08:32.374Z,10.70
2023-03-20T05:11:00.655Z,10.70
2023-03-20T05:13:28.826Z,10.70
2023-03-20T05:15:57.335Z,10.80
2023-03-20T05:18:25.746Z,10.80
2023-03-20T05:20:55.389Z,10.80
2023-03-20T05:23:23.631Z,10.80
2023-03-20T05:25:51.754Z,10.80
2023-03-20T05:28:19.925Z,10.80
2023-03-20T05:30:48.172Z,10.80
2023-03-20T05:33:16.763Z,10.80
2023-03-20T05:35:45.088Z,10.80
2023-03-20T05:38:14.672Z,10.80
2023-03-20T05:40:42.990Z,10.80
2023-03-20T05:43:11.428Z,10.80
2023-03-20T05:45:39.529Z,10.80
2023-03-20T05:48:08.056Z,10.80
2023-03-20T05:50:36.198Z,10.80
2023-03-20T05:53:04.530Z,10.80
2023-03-20T05:55:34.389Z,10.80
2023-03-20T05:58:02.897Z,10.80
2023-03-20T06:00:31.199Z,10.80
2023-03-20T06:02:59.521Z,10.80
2023-03-20T06:05:27.728Z,10.80
2023-03-20T06:07:56.382Z,10.80
2023-03-20T06:10:24.526Z,10.90
2023-03-20T06:12:54.286Z,10.90
2023-03-20T06:15:22.650Z,10.90
2023-03-20T06:17:50.883Z,10.90
2023-03-20T06:20:19.321Z,10.90
2023-03-20T06:22:47.791Z,10.90
2023-03-20T06:25:16.022Z,10.90
2023-03-20T06:27:44.609Z,10.90
2023-03-20T06:30:15.397Z,10.90
2023-03-20T06:32:43.738Z,10.90
2023-03-20T06:35:13.092Z,10.90
2023-03-20T06:37:41.563Z,10.90
2023-03-20T06:40:11.485Z,10.90
2023-03-20T06:42:39.656Z,10.90
2023-03-20T06:45:09.286Z,11.00
2023-03-20T06:47:38.986Z,11.00
2023-03-20T06:50:08.160Z,11.00
2023-03-20T06:52:36.816Z,11.00
2023-03-20T06:55:05.891Z,11.00
2023-03-20T06:57:34.382Z,11.00
2023-03-20T07:00:04.391Z,11.00
2023-03-20T07:02:32.603Z,11.00
2023-03-20T07:05:02.310Z,11.10
2023-03-20T07:07:30.548Z,11.10
2023-03-20T07:09:58.768Z,11.10
2023-03-20T07:12:28.711Z,11.10
2023-03-20T07:14:57.386Z,11.10
2023-03-20T07:17:25.917Z,11.10
2023-03-20T07:19:54.173Z,11.10
2023-03-20T07:22:26.041Z,11.20
2023-03-20T07:24:55.541Z,11.20
2023-03-20T07:27:24.087Z,11.10
2023-03-20T07:29:52.378Z,11.20
2023-03-20T07:32:20.838Z,11.20
2023-03-20T07:34:50.229Z,11.20
2023-03-20T07:37:18.565Z,11.20
2023-03-20T07:39:48.153Z,11.20
2023-03-20T07:42:16.551Z,11.20
2023-03-20T07:44:44.733Z,11.20
2023-03-20T07:47:13.185Z,11.20
2023-03-20T07:49:41.501Z,11.20
2023-03-20T07:52:09.870Z,11.20
2023-03-20T07:54:38.006Z,11.30
2023-03-20T07:57:07.597Z,11.20
2023-03-20T07:59:35.853Z,11.20
2023-03-20T08:02:04.184Z,11.20
2023-03-20T08:04:32.732Z,11.20
2023-03-20T08:07:01.289Z,11.30
2023-03-20T08:09:29.704Z,11.30
2023-03-20T08:11:58.089Z,11.30
2023-03-20T08:14:27.707Z,11.30
2023-03-20T08:17:12.417Z,11.40
2023-03-20T08:19:42.406Z,11.40
2023-03-20T08:22:10.991Z,11.40
2023-03-20T08:24:39.372Z,11.40
2023-03-20T08:27:07.891Z,11.40
2023-03-20T08:29:37.520Z,11.50
2023-03-20T08:32:06.166Z,11.60
2023-03-20T08:34:34.658Z,11.60
2023-03-20T08:37:05.414Z,11.60
2023-03-20T08:39:34.431Z,11.60
2023-03-20T08:42:02.908Z,11.60
2023-03-20T08:44:31.283Z,11.60
2023-03-20T08:47:01.340Z,11.70
2023-03-20T08:49:29.604Z,11.70
2023-03-20T08:51:57.848Z,11.80
2023-03-20T08:54:26.219Z,11.90
2023-03-20T08:56:54.810Z,12.00
2023-03-20T08:59:23.009Z,12.00
2023-03-20T09:01:51.153Z,12.00
2023-03-20T09:04:21.152Z,12.00
2023-03-20T09:06:50.372Z,12.00
2023-03-20T09:09:20.237Z,12.10
2023-03-20T09:11:48.727Z,12.10
2023-03-20T09:14:17.016Z,12.10
2023-03-20T09:16:45.234Z,12.20
2023-03-20T09:19:13.427Z,12.20
2023-03-20T09:21:43.036Z,12.30
2023-03-20T09:24:12.144Z,12.30
2023-03-20T09:26:40.571Z,12.40
2023-03-20T09:29:08.771Z,12.40
2023-03-20T09:31:37.011Z,12.40
2023-03-20T09:34:05.328Z,12.50
2023-03-20T09:36:33.689Z,12.50
2023-03-20T09:39:04.153Z,12.60
2023-03-20T09:41:49.011Z,12.70
2023-03-20T09:44:36.952Z,12.70
2023-03-20T09:47:20.728Z,12.80
2023-03-20T09:50:00.524Z,12.80
2023-03-20T09:52:32.237Z,12.80
2023-03-20T09:55:05.524Z,12.90
2023-03-20T09:57:39.142Z,13.00
2023-03-20T10:00:13.919Z,13.00
2023-03-20T10:02:50.087Z,13.00
2023-03-20T10:05:24.249Z,13.10
2023-03-20T10:07:53.337Z,13.10
2023-03-20T10:10:28.421Z,13.10
2023-03-20T10:13:07.885Z,13.10
2023-03-20T10:15:47.162Z,13.10
2023-03-20T10:18:24.072Z,13.20
2023-03-20T10:20:59.105Z,13.20
2023-03-20T10:23:34.446Z,13.30
2023-03-20T10:26:07.527Z,13.30
2023-03-20T10:28:41.257Z,13.30
2023-03-20T10:31:29.190Z,13.40
2023-03-20T10:34:13.533Z,13.40
2023-03-20T10:36:55.233Z,13.50
2023-03-20T10:39:37.841Z,13.50
2023-03-20T10:42:14.865Z,13.50
2023-03-20T10:44:47.396Z,13.50
2023-03-20T10:47:20.198Z,13.50
2023-03-20T10:49:51.847Z,13.50
2023-03-20T10:52:26.424Z,13.40
2023-03-20T10:54:59.518Z,13.30
2023-03-20T10:57:32.774Z,13.30
2023-03-20T11:00:01.338Z,13.30
2023-03-20T11:02:31.248Z,13.20
2023-03-20T11:05:01.865Z,13.30
2023-03-20T11:07:34.187Z,13.30
2023-03-20T11:10:14.408Z,13.30
2023-03-20T11:12:45.827Z,13.30
2023-03-20T11:15:23.117Z,13.40
2023-03-20T11:17:55.646Z,13.50
2023-03-20T11:20:24.863Z,13.60
2023-03-20T11:22:59.843Z,13.60
2023-03-20T11:25:33.116Z,13.60
2023-03-20T11:28:26.945Z,13.70
2023-03-20T11:31:04.880Z,13.70
2023-03-20T11:33:37.501Z,13.60
2023-03-20T11:36:13.383Z,13.70
2023-03-20T11:38:46.526Z,13.70
2023-03-20T11:41:24.913Z,13.70
2023-03-20T11:43:54.906Z,13.70
2023-03-20T11:46:24.808Z,13.70
2023-03-20T11:49:09.031Z,13.80
2023-03-20T11:51:38.210Z,13.80
2023-03-20T11:54:15.133Z,13.80
2023-03-20T11:56:53.889Z,13.80
2023-03-20T11:59:25.913Z,13.80
2023-03-20T12:01:56.535Z,13.90
2023-03-20T12:04:29.946Z,13.90
2023-03-20T12:07:02.503Z,13.90
2023-03-20T12:09:38.592Z,13.90
2023-03-20T12:12:14.704Z,13.90
2023-03-20T12:14:48.953Z,13.90
2023-03-20T12:17:36.178Z,13.90
2023-03-20T12:20:13.159Z,14.00
2023-03-20T12:22:51.139Z,14.10
2023-03-20T12:25:23.392Z,14.10
2023-03-20T12:27:57.682Z,14.00
2023-03-20T12:30:37.612Z,14.10
2023-03-20T12:33:09.703Z,14.10
2023-03-20T12:35:42.868Z,14.10
2023-03-20T12:38:21.626Z,14.20
2023-03-20T12:40:54.438Z,14.20
2023-03-20T12:43:28.081Z,14.20
2023-03-20T12:46:09.562Z,14.20
2023-03-20T12:48:59.008Z,14.30
2023-03-20T12:51:40.420Z,14.40
2023-03-20T12:54:30.335Z,14.30
2023-03-20T12:57:07.074Z,14.40
2023-03-20T12:59:46.116Z,14.40
2023-03-20T13:02:26.984Z,14.50
2023-03-20T13:05:04.394Z,14.50
2023-03-20T13:07:47.540Z,14.60
2023-03-20T13:10:23.233Z,14.70
2023-03-20T13:13:04.275Z,14.60
2023-03-20T13:15:42.432Z,14.60
2023-03-20T13:18:21.180Z,14.60
2023-03-20T13:20:52.265Z,14.60
2023-03-20T13:23:25.561Z,14.50
2023-03-20T13:26:14.031Z,14.50
2023-03-20T13:28:53.142Z,14.50
2023-03-20T13:31:34.055Z,14.60
2023-03-20T13:34:13.156Z,14.60
2023-03-20T13:36:55.115Z,14.60
2023-03-20T13:39:28.747Z,14.60
2023-03-20T13:41:58.450Z,14.60
2023-03-20T13:44:30.490Z,14.70
2023-03-20T13:47:03.128Z,14.80
2023-03-20T13:49:37.797Z,14.70
2023-03-20T13:52:10.731Z,14.80
2023-03-20T13:54:52.523Z,14.80
2023-03-20T13:57:37.290Z,14.90
2023-03-20T14:00:12.365Z,14.90
2023-03-20T14:02:57.470Z,14.90
2023-03-20T14:05:28.756Z,14.80
2023-03-20T14:07:58.569Z,14.80
2023-03-20T14:10:38.406Z,14.80
2023-03-20T14:13:14.116Z,14.80
2023-03-20T14:15:49.175Z,14.80
2023-03-20T14:18:19.698Z,14.80
2023-03-20T14:20:56.714Z,14.90
2023-03-20T14:23:36.207Z,14.90
2023-03-20T14:26:10.096Z,14.90
2023-03-20T14:28:56.388Z,14.90
2023-03-20T14:31:30.632Z,15.00
2023-03-20T14:34:14.053Z,15.00
2023-03-20T14:36:59.214Z,15.10
2023-03-20T14:39:48.022Z,15.10
2023-03-20T14:42:28.102Z,15.10
2023-03-20T14:45:20.413Z,15.10
2023-03-20T14:47:56.247Z,15.10
2023-03-20T14:50:30.567Z,15.10
2023-03-20T14:53:10.700Z,15.10
2023-03-20T14:55:52.096Z,15.10
2023-03-20T14:58:53.662Z,15.10
2023-03-20T15:01:47.785Z,15.00
2023-03-20T15:04:29.524Z,15.00
2023-03-20T15:07:00.545Z,15.00
2023-03-20T15:09:32.358Z,15.00
2023-03-20T15:12:04.506Z,15.00
2023-03-20T15:14:41.639Z,15.00
2023-03-20T15:17:19.175Z,15.00
2023-03-20T15:19:47.477Z,15.00
2023-03-20T15:22:20.031Z,14.90
2023-03-20T15:24:57.529Z,14.90
2023-03-20T15:27:29.650Z,15.00
2023-03-20T15:29:59.520Z,14.90
2023-03-20T15:32:27.687Z,15.00
2023-03-20T15:34:55.842Z,15.00
2023-03-20T15:37:25.368Z,15.00
2023-03-20T15:39:59.250Z,15.00
2023-03-20T15:42:28.073Z,15.00
2023-03-20T15:44:57.871Z,15.00
2023-03-20T15:47:26.995Z,15.00
2023-03-20T15:49:56.931Z,14.90
2023-03-20T15:52:32.392Z,14.90
2023-03-20T15:55:06.827Z,14.90
2023-03-20T15:57:37.571Z,14.90
2023-03-20T16:00:08.260Z,14.90
2023-03-20T16:02:38.324Z,14.90
2023-03-20T16:05:10.333Z,14.90
2023-03-20T16:07:38.529Z,14.90
2023-03-20T16:10:19.630Z,14.90
2023-03-20T16:12:50.799Z,14.90
2023-03-20T16:15:20.545Z,14.90
2023-03-20T16:17:50.380Z,14.80
2023-03-20T16:20:27.355Z,14.90
2023-03-20T16:23:00.585Z,14.80
2023-03-20T16:25:30.370Z,14.80
2023-03-20T16:27:59.936Z,14.80
2023-03-20T16:30:32.430Z,14.80
2023-03-20T16:33:02.693Z,14.80
2023-03-20T16:35:35.164Z,14.80
2023-03-20T16:38:15.289Z,14.80
2023-03-20T16:40:44.960Z,14.70
2023-03-20T16:43:17.087Z,14.70
2023-03-20T16:45:47.896Z,14.70
2023-03-20T16:48:26.751Z,14.70
2023-03-20T16:51:12.420Z,14.80
2023-03-20T16:53:44.064Z,14.80
2023-03-20T16:56:17.569Z,14.80
2023-03-20T16:58:46.995Z,14.80
2023-03-20T17:01:21.320Z,14.70
2023-03-20T17:03:53.520Z,14.70
2023-03-20T17:06:40.347Z,14.60
2023-03-20T17:09:24.651Z,14.60
2023-03-20T17:12:02.348Z,14.60
2023-03-20T17:14:30.959Z,14.60
2023-03-20T17:17:00.488Z,14.50
2023-03-20T17:19:28.810Z,14.50
2023-03-20T17:21:57.779Z,14.50
2023-03-20T17:24:26.042Z,14.50
2023-03-20T17:26:57.688Z,14.40
2023-03-20T17:29:26.065Z,14.40
2023-03-20T17:31:54.349Z,14.40
2023-03-20T17:34:22.655Z,14.40
2023-03-20T17:36:50.970Z,14.30
2023-03-20T17:39:21.077Z,14.20
2023-03-20T17:41:49.604Z,14.20
2023-03-20T17:44:19.114Z,14.20
2023-03-20T17:46:57.969Z,14.20
2023-03-20T17:49:28.343Z,14.20
2023-03-20T17:51:57.170Z,14.20
2023-03-20T17:54:25.528Z,14.20
2023-03-20T17:56:53.797Z,14.20
2023-03-20T17:59:24.903Z,14.20
2023-03-20T18:01:53.238Z,14.20
2023-03-20T18:04:21.523Z,14.20
2023-03-20T18:06:49.725Z,14.20
2023-03-20T18:09:18.109Z,14.20
2023-03-20T18:11:46.343Z,14.20
2023-03-20T18:14:17.941Z,14.20
2023-03-20T18:16:47.600Z,14.20
2023-03-20T18:19:24.327Z,14.20
2023-03-20T18:21:52.606Z,14.20
2023-03-20T18:24:20.716Z,14.20
2023-03-20T18:26:48.978Z,14.20
2023-03-20T18:29:17.533Z,14.10
2023-03-20T18:31:47.325Z,14.10
2023-03-20T18:34:16.201Z,14.10
2023-03-20T18:36:45.789Z,14.10
2023-03-20T18:39:18.773Z,14.10
2023-03-20T18:41:46.980Z,14.10
2023-03-20T18:44:15.547Z,14.00
2023-03-20T18:46:44.209Z,14.00
2023-03-20T18:49:17.401Z,14.00
2023-03-20T18:51:46.063Z,14.00
2023-03-20T18:54:14.508Z,13.90
2023-03-20T18:56:43.329Z,13.90
2023-03-20T18:59:13.817Z,14.10
2023-03-20T19:01:42.196Z,14.10
2023-03-20T19:04:11.268Z,14.00
2023-03-20T19:06:40.968Z,14.00
2023-03-20T19:09:10.942Z,14.00
2023-03-20T19:11:39.308Z,13.90
2023-03-20T19:14:07.520Z,13.90
2023-03-20T19:16:37.893Z,13.90
2023-03-20T19:19:07.984Z,13.90
2023-03-20T19:21:36.906Z,13.80
2023-03-20T19:24:08.437Z,13.80
2023-03-20T19:26:38.258Z,13.80
2023-03-20T19:29:09.576Z,13.80
2023-03-20T19:31:38.310Z,13.70
2023-03-20T19:34:06.860Z,13.70
2023-03-20T19:36:37.848Z,13.70
2023-03-20T19:39:08.924Z,13.60
2023-03-20T19:41:37.339Z,13.60
2023-03-20T19:44:06.573Z,13.60
2023-03-20T19:46:40.339Z,13.50
2023-03-20T19:49:18.562Z,13.50
2023-03-20T19:51:47.867Z,13.40
2023-03-20T19:54:18.003Z,13.40
2023-03-20T19:56:46.201Z,13.40
2023-03-20T19:59:16.745Z,13.30
2023-03-20T20:01:46.617Z,13.30
2023-03-20T20:04:15.440Z,13.30
2023-03-20T20:06:43.621Z,13.20
2023-03-20T20:09:11.925Z,13.20
2023-03-20T20:11:41.534Z,13.20
2023-03-20T20:14:13.353Z,13.10
2023-03-20T20:16:43.842Z,13.10
2023-03-20T20:19:12.336Z,13.10
2023-03-20T20:24:29.220Z,13.00
2023-03-20T20:29:49.247Z,13.00
2023-03-20T20:32:18.105Z,12.90
2023-03-20T20:38:21.477Z,12.90
2023-03-20T20:40:27.341Z,12.90
2023-03-20T20:43:01.404Z,12.80
2023-03-20T20:45:31.763Z,12.80
2023-03-20T20:48:00.618Z,12.80
2023-03-20T20:50:31.795Z,12.70
2023-03-20T20:53:00.732Z,12.70
2023-03-20T20:55:28.940Z,12.70
2023-03-20T20:57:58.803Z,12.70
2023-03-20T21:00:47.642Z,12.60
2023-03-20T21:03:16.117Z,12.60
2023-03-20T21:05:44.323Z,12.60
2023-03-20T21:08:14.300Z,12.60
2023-03-20T21:10:42.825Z,12.60
2023-03-20T21:13:12.371Z,12.50
2023-03-20T21:15:41.261Z,12.50
2023-03-20T21:18:09.712Z,12.50
2023-03-20T21:20:38.438Z,12.50
2023-03-20T21:23:06.648Z,12.50
2023-03-20T21:25:45.598Z,12.40
2023-03-20T21:28:16.871Z,12.40
2023-03-20T21:31:08.925Z,12.40
2023-03-20T21:33:33.992Z,12.40
2023-03-20T21:36:02.542Z,12.30
2023-03-20T21:39:05.939Z,12.30
2023-03-20T21:41:19.248Z,12.30
2023-03-20T21:43:49.815Z,12.30
2023-03-20T21:46:52.493Z,12.30
2023-03-20T22:03:26.155Z,12.20
2023-03-20T22:17:57.467Z,12.20
2023-03-20T22:20:49.770Z,12.20
2023-03-20T22:26:33.905Z,12.10
2023-03-20T22:45:24.108Z,12.00
2023-03-20T22:47:53.724Z,12.00
2023-03-20T22:50:23.428Z,12.00
2023-03-20T22:52:53.741Z,12.00
2023-03-20T22:55:22.216Z,12.00
2023-03-20T22:58:05.965Z,11.90
2023-03-20T23:00:35.715Z,11.90
2023-03-20T23:03:22.230Z,11.90
2023-03-20T23:05:55.267Z,11.90
2023-03-20T23:08:24.961Z,11.80
2023-03-20T23:10:53.244Z,11.90
2023-03-20T23:13:22.476Z,11.90
2023-03-20T23:15:51.749Z,11.90
2023-03-20T23:18:19.915Z,11.90
2023-03-20T23:20:48.065Z,11.80
2023-03-20T23:23:17.571Z,11.70
2023-03-20T23:25:45.747Z,11.60
2023-03-20T23:28:13.897Z,11.60
2023-03-20T23:30:48.064Z,11.60
2023-03-20T23:33:19.850Z,11.60
2023-03-20T23:35:48.770Z,11.60
2023-03-20T23:38:19.476Z,11.60
2023-03-20T23:40:50.260Z,11.50
2023-03-20T23:43:18.966Z,11.60
2023-03-20T23:45:47.460Z,11.60
2023-03-20T23:48:15.764Z,11.60
2023-03-20T23:50:52.534Z,11.70
2023-03-20T23:53:22.853Z,11.70
2023-03-20T23:55:53.250Z,11.70
2023-03-20T23:58:22.088Z,11.70
